| time (UTC) | temp F | wind direction | speed knots | gust knots | rain 1hr in | rain 24hr in | rain mn in | humidity % | barometer mb |
| 20260508224609 | 60 | 0 | 0.0 | 0.0 | 0.00 | 0.00 | 0.00 | 61 | 1009.8 |
| 20260508223059 | 61 | 0 | 0.0 | 1.7 | 0.00 | 0.00 | 0.00 | 57 | 1009.9 |
| 20260508221604 | 62 | 0 | 0.0 | 1.7 | 0.00 | 0.00 | 0.00 | 55 | 1010.0 |
| 20260508220104 | 62 | 297 | 0.0 | 1.7 | 0.00 | 0.00 | 0.00 | 53 | 1009.9 |
| 20260508214557 | 63 | 191 | 0.9 | 4.3 | 0.00 | 0.00 | 0.00 | 51 | 1009.8 |
| 20260508213116 | 63 | 280 | 0.9 | 4.3 | 0.00 | 0.00 | 0.00 | 49 | 1009.8 |
| 20260508211558 | 63 | 238 | 0.9 | 5.2 | 0.00 | 0.00 | 0.00 | 48 | 1010.0 |
| 20260508210059 | 63 | 182 | 1.7 | 4.3 | 0.00 | 0.00 | 0.00 | 49 | 1010.1 |
| 20260508204556 | 64 | 264 | 1.7 | 4.3 | 0.00 | 0.00 | 0.00 | 48 | 1010.1 |
| 20260508203115 | 65 | 226 | 1.7 | 8.7 | 0.00 | 0.00 | 0.00 | 47 | 1010.3 |
| 20260508201557 | 65 | 276 | 1.7 | 8.7 | 0.00 | 0.00 | 0.00 | 46 | 1010.4 |
| 20260508200100 | 65 | 259 | 2.6 | 12.2 | 0.00 | 0.00 | 0.00 | 44 | 1010.6 |
| 20260508194601 | 65 | 312 | 3.5 | 7.8 | 0.00 | 0.00 | 0.00 | 45 | 1010.7 |
| 20260508193135 | 65 | 287 | 2.6 | 7.0 | 0.00 | 0.00 | 0.00 | 46 | 1010.9 |
| 20260508191601 | 65 | 243 | 3.5 | 7.8 | 0.00 | 0.00 | 0.00 | 45 | 1011.2 |
| 20260508190107 | 65 | 179 | 2.6 | 9.6 | 0.00 | 0.00 | 0.00 | 48 | 1011.3 |
| 20260508184635 | 65 | 141 | 2.6 | 8.7 | 0.00 | 0.00 | 0.00 | 47 | 1011.4 |
| 20260508183114 | 65 | 160 | 3.5 | 11.3 | 0.00 | 0.00 | 0.00 | 46 | 1011.4 |
| 20260508181601 | 65 | 188 | 3.5 | 9.6 | 0.00 | 0.00 | 0.00 | 46 | 1011.7 |
| 20260508180105 | 67 | 279 | 1.7 | 7.8 | 0.00 | 0.00 | 0.00 | 46 | 1011.7 |
| 20260508174617 | 67 | 186 | 3.5 | 10.4 | 0.00 | 0.00 | 0.00 | 45 | 1012.1 |
| 20260508173118 | 66 | 241 | 1.7 | 7.8 | 0.00 | 0.00 | 0.00 | 49 | 1012.3 |
| 20260508171628 | 65 | 280 | 3.5 | 7.8 | 0.00 | 0.00 | 0.00 | 49 | 1012.7 |
| 20260508164604 | 62 | 180 | 2.6 | 7.0 | 0.00 | 0.00 | 0.00 | 52 | 1013.3 |
| 20260508163101 | 63 | 280 | 1.7 | 5.2 | 0.00 | 0.00 | 0.00 | 51 | 1013.4 |
| 20260508161603 | 64 | 250 | 2.6 | 8.7 | 0.00 | 0.00 | 0.00 | 48 | 1013.4 |
| 20260508154600 | 62 | 165 | 1.7 | 8.7 | 0.00 | 0.00 | 0.00 | 51 | 1013.7 |
| 20260508153101 | 62 | 244 | 2.6 | 6.1 | 0.00 | 0.00 | 0.00 | 51 | 1013.7 |
| 20260508151601 | 62 | 319 | 2.6 | 7.8 | 0.00 | 0.00 | 0.00 | 53 | 1013.7 |
| 20260508150059 | 61 | 249 | 1.7 | 7.0 | 0.00 | 0.00 | 0.00 | 55 | 1013.8 |
| 20260508144601 | 58 | 293 | 0.9 | 4.3 | 0.00 | 0.00 | 0.00 | 59 | 1014.1 |
| 20260508143103 | 57 | 309 | 1.7 | 5.2 | 0.00 | 0.00 | 0.00 | 57 | 1014.3 |
| 20260508141601 | 56 | 289 | 0.9 | 4.3 | 0.00 | 0.00 | 0.00 | 60 | 1014.3 |
| 20260508140111 | 54 | 237 | 1.7 | 6.1 | 0.00 | 0.00 | 0.00 | 60 | 1014.6 |
| 20260508134623 | 53 | 220 | 0.9 | 5.2 | 0.00 | 0.00 | 0.00 | 63 | 1014.6 |
| 20260508133113 | 52 | 264 | 1.7 | 3.5 | 0.00 | 0.00 | 0.00 | 64 | 1014.5 |
| 20260508131603 | 51 | 147 | 1.7 | 4.3 | 0.00 | 0.00 | 0.00 | 64 | 1014.5 |
| 20260508130103 | 51 | 255 | 1.7 | 5.2 | 0.00 | 0.00 | 0.00 | 66 | 1014.5 |
| 20260508124559 | 50 | 181 | 0.9 | 2.6 | 0.00 | 0.00 | 0.00 | 66 | 1014.4 |
| 20260508123105 | 50 | 149 | 0.0 | 3.5 | 0.00 | 0.00 | 0.00 | 66 | 1014.4 |
| 20260508121602 | 48 | 150 | 0.9 | 3.5 | 0.00 | 0.00 | 0.00 | 69 | 1014.3 |
| 20260508114607 | 46 | 0 | 0.0 | 0.0 | 0.00 | 0.00 | 0.00 | 74 | 1014.2 |
| 20260508113108 | 44 | 0 | 0.0 | 0.0 | 0.00 | 0.00 | 0.00 | 75 | 1013.9 |
| 20260508111602 | 44 | 0 | 0.0 | 0.0 | 0.00 | 0.00 | 0.00 | 73 | 1013.7 |
| 20260508110105 | 45 | 0 | 0.0 | 0.9 | 0.00 | 0.00 | 0.00 | 71 | 1013.7 |
| 20260508104600 | 45 | 212 | 0.0 | 2.6 | 0.00 | 0.00 | 0.00 | 71 | 1013.6 |
| 20260508103100 | 45 | 178 | 0.0 | 0.9 | 0.00 | 0.00 | 0.00 | 71 | 1013.4 |
| 20260508101600 | 45 | 0 | 0.0 | 1.7 | 0.00 | 0.00 | 0.00 | 70 | 1013.4 |
| 20260508100057 | 45 | 0 | 0.0 | 2.6 | 0.00 | 0.00 | 0.00 | 70 | 1013.4 |
| 20260508094615 | 45 | 160 | 0.0 | 1.7 | 0.00 | 0.00 | 0.00 | 70 | 1013.4 |
| 20260508093058 | 44 | 190 | 0.0 | 0.9 | 0.00 | 0.00 | 0.00 | 70 | 1013.5 |
| 20260508091617 | 45 | 0 | 0.0 | 2.6 | 0.00 | 0.00 | 0.00 | 68 | 1013.4 |
| 20260508090112 | 45 | 184 | 0.0 | 1.7 | 0.00 | 0.00 | 0.00 | 69 | 1013.5 |
| 20260508084558 | 45 | 155 | 0.0 | 0.9 | 0.00 | 0.00 | 0.00 | 69 | 1013.6 |
| 20260508083106 | 45 | 173 | 0.0 | 0.9 | 0.00 | 0.00 | 0.00 | 68 | 1013.6 |
| 20260508081606 | 45 | 0 | 0.0 | 0.9 | 0.00 | 0.00 | 0.00 | 68 | 1013.6 |
| 20260508080058 | 46 | 0 | 0.0 | 0.0 | 0.00 | 0.00 | 0.00 | 68 | 1013.6 |
| 20260508074600 | 46 | 0 | 0.0 | 0.0 | 0.00 | 0.00 | 0.00 | 66 | 1013.5 |
| 20260508073105 | 47 | 0 | 0.0 | 0.9 | 0.00 | 0.00 | 0.00 | 64 | 1013.7 |
| 20260508071559 | 48 | 165 | 0.0 | 2.6 | 0.00 | 0.00 | 0.00 | 63 | 1013.8 |
| 20260508070101 | 48 | 192 | 0.9 | 3.5 | 0.00 | 0.00 | 0.00 | 62 | 1013.8 |
| 20260508064600 | 48 | 207 | 0.0 | 2.6 | 0.00 | 0.00 | 0.00 | 63 | 1013.9 |
| 20260508063139 | 49 | 164 | 0.0 | 1.7 | 0.00 | 0.00 | 0.00 | 65 | 1014.1 |
| 20260508061559 | 50 | 0 | 0.0 | 3.5 | 0.00 | 0.00 | 0.00 | 61 | 1014.3 |
| 20260508060058 | 50 | 226 | 0.9 | 2.6 | 0.00 | 0.00 | 0.00 | 60 | 1013.7 |
| 20260508054600 | 49 | 0 | 0.9 | 4.3 | 0.00 | 0.00 | 0.00 | 61 | 1013.8 |
| 20260508053102 | 49 | 0 | 0.0 | 1.7 | 0.00 | 0.00 | 0.00 | 62 | 1013.8 |
| 20260508051618 | 49 | 0 | 0.0 | 0.9 | 0.00 | 0.00 | 0.00 | 63 | 1013.9 |
| 20260508050058 | 48 | 0 | 0.0 | 1.7 | 0.00 | 0.00 | 0.00 | 65 | 1013.9 |
| 20260508044558 | 48 | 0 | 0.0 | 0.9 | 0.00 | 0.00 | 0.00 | 68 | 1014.0 |
| 20260508043058 | 48 | 0 | 0.0 | 0.0 | 0.00 | 0.00 | 0.00 | 68 | 1014.0 |
| 20260508041558 | 48 | 0 | 0.0 | 0.0 | 0.00 | 0.00 | 0.00 | 67 | 1014.1 |
| 20260508034559 | 48 | 0 | 0.0 | 0.0 | 0.00 | 0.00 | 0.00 | 68 | 1014.2 |
| 20260508033058 | 48 | 0 | 0.0 | 0.0 | 0.00 | 0.00 | 0.00 | 66 | 1014.2 |
| 20260508031605 | 48 | 0 | 0.0 | 0.0 | 0.00 | 0.00 | 0.00 | 63 | 1014.2 |
| 20260508030108 | 47 | 0 | 0.0 | 0.0 | 0.00 | 0.00 | 0.00 | 64 | 1014.1 |
| 20260508024602 | 47 | 0 | 0.0 | 0.0 | 0.00 | 0.00 | 0.00 | 66 | 1014.1 |
| 20260508023100 | 46 | 0 | 0.0 | 0.0 | 0.00 | 0.00 | 0.00 | 70 | 1014.0 |
| 20260508021558 | 45 | 0 | 0.0 | 0.0 | 0.00 | 0.00 | 0.00 | 73 | 1014.1 |
| 20260508020106 | 46 | 0 | 0.0 | 0.0 | 0.00 | 0.00 | 0.00 | 72 | 1013.9 |
| 20260508014558 | 47 | 0 | 0.0 | 0.0 | 0.00 | 0.00 | 0.00 | 70 | 1014.1 |
| 20260508013100 | 47 | 0 | 0.0 | 0.0 | 0.00 | 0.00 | 0.00 | 68 | 1014.0 |
| 20260508011600 | 47 | 0 | 0.0 | 0.0 | 0.00 | 0.00 | 0.00 | 67 | 1014.1 |
| 20260508010145 | 48 | 0 | 0.0 | 0.0 | 0.00 | 0.00 | 0.00 | 64 | 1014.0 |
| 20260508010111 | 48 | 0 | 0.0 | 0.0 | 0.00 | 0.00 | 0.00 | 64 | 1014.0 |
| 20260508004557 | 49 | 0 | 0.0 | 0.0 | 0.00 | 0.00 | 0.00 | 59 | 1014.0 |
| 20260508003113 | 51 | 0 | 0.0 | 0.0 | 0.00 | 0.00 | 0.00 | 53 | 1013.9 |
| 20260508001602 | 53 | 0 | 0.0 | 0.0 | 0.00 | 0.00 | 0.00 | 50 | 1013.9 |
| 20260508000057 | 54 | 0 | 0.0 | 1.7 | 0.00 | 0.00 | 0.00 | 47 | 1013.7 |
| 20260507234600 | 55 | 214 | 0.0 | 3.5 | 0.00 | 0.00 | 0.00 | 44 | 1013.7 |
| 20260507233057 | 58 | 0 | 0.9 | 3.5 | 0.00 | 0.00 | 0.00 | 41 | 1013.5 |
| 20260507231559 | 57 | 221 | 0.0 | 2.6 | 0.00 | 0.00 | 0.00 | 42 | 1013.6 |